Time;durP1;ratioP1;P1;durP2;ratioP2;P2;SDS_P1;SDS_P2;PMS_P1;PMS_P2;Temp;Humidity;BMP_temperature;BMP_pressure;BME280_temperature;BME280_humidity;BME280_pressure;Samples;Min_cycle;Max_cycle;Signal;HPM_P1;HPM_P2
2022/12/23 00:01:25;;;;;;;6.40;5.80;;;13.00;99.90;;;;;;5030176;28;20181;-64
2022/12/23 00:03:51;;;;;;;6.60;5.63;;;12.90;99.90;;;;;;5032465;28;20207;-64
2022/12/23 00:06:19;;;;;;;8.53;5.43;;;13.00;99.90;;;;;;5026119;28;20435;-64
2022/12/23 00:08:45;;;;;;;7.90;5.67;;;13.00;99.90;;;;;;5027928;28;20464;-64
2022/12/23 00:11:14;;;;;;;6.10;5.60;;;12.90;99.90;;;;;;5032631;28;20436;-63
2022/12/23 00:16:45;;;;;;;6.90;6.30;;;12.80;99.90;;;;;;4989765;28;20541;-63
2022/12/23 00:19:10;;;;;;;6.50;5.90;;;12.90;99.90;;;;;;4999501;28;20568;-63
2022/12/23 00:21:36;;;;;;;6.43;5.73;;;12.80;99.90;;;;;;5027252;28;20559;-63
2022/12/23 00:24:04;;;;;;;6.07;5.67;;;12.80;99.90;;;;;;5036211;28;20349;-70
2022/12/23 00:26:30;;;;;;;6.60;6.00;;;12.80;99.90;;;;;;5026663;28;20182;-63
2022/12/23 00:28:57;;;;;;;5.93;5.43;;;12.80;99.90;;;;;;5030659;28;20429;-67
2022/12/23 00:31:23;;;;;;;6.77;5.60;;;12.80;99.90;;;;;;5030392;28;20189;-63
2022/12/23 00:33:52;;;;;;;6.53;5.93;;;12.80;99.90;;;;;;5033306;28;20520;-63
2022/12/23 00:36:26;;;;;;;6.57;5.73;;;12.80;99.90;;;;;;5029951;28;20207;-64
2022/12/23 00:44:21;;;;;;;5.83;5.43;;;12.90;99.90;;;;;;5025329;28;20434;-65
2022/12/23 00:46:47;;;;;;;8.10;7.50;;;12.90;99.90;;;;;;5029237;28;20880;-67
2022/12/23 00:52:03;;;;;;;6.90;6.20;;;12.90;99.90;;;;;;5025956;28;20520;-70
2022/12/23 00:54:30;;;;;;;8.13;5.97;;;12.90;99.90;;;;;;5028426;28;20435;-63
2022/12/23 00:56:57;;;;;;;8.27;7.00;;;13.00;99.90;;;;;;5030132;28;20429;-64
2022/12/23 00:59:23;;;;;;;6.40;5.80;;;13.00;99.90;;;;;;5026223;28;20425;-66
2022/12/23 01:07:18;;;;;;;6.10;5.60;;;13.00;99.90;;;;;;5030027;28;20432;-64
2022/12/23 01:09:43;;;;;;;8.37;5.70;;;13.00;99.90;;;;;;5030092;28;20437;-66
2022/12/23 01:12:09;;;;;;;6.90;6.30;;;13.00;99.90;;;;;;5029822;28;20228;-64
2022/12/23 01:14:35;;;;;;;8.10;5.60;;;13.00;99.90;;;;;;5028968;28;20175;-64
2022/12/23 01:17:01;;;;;;;7.10;5.30;;;13.00;99.90;;;;;;5025204;28;20233;-69
2022/12/23 01:19:27;;;;;;;6.50;5.87;;;12.90;99.90;;;;;;5027132;28;20193;-64
2022/12/23 01:21:53;;;;;;;7.70;5.90;;;13.00;99.90;;;;;;5030576;28;20194;-64
2022/12/23 01:24:18;;;;;;;6.40;5.80;;;13.00;99.90;;;;;;5026449;28;20565;-64
2022/12/23 01:26:44;;;;;;;6.93;5.90;;;13.00;99.90;;;;;;5030243;28;20187;-63
2022/12/23 01:29:10;;;;;;;6.20;5.70;;;13.00;99.90;;;;;;5040582;28;20174;-64
2022/12/23 01:31:36;;;;;;;6.63;6.00;;;13.00;99.90;;;;;;5040278;28;20175;-64
2022/12/23 01:34:01;;;;;;;6.43;5.73;;;12.90;99.90;;;;;;5035687;28;20189;-71
2022/12/23 01:36:27;;;;;;;6.90;6.37;;;12.90;99.90;;;;;;5024966;28;20256;-64
2022/12/23 01:38:55;;;;;;;6.40;5.70;;;13.00;99.90;;;;;;5029177;28;20628;-64
2022/12/23 01:44:46;;;;;;;6.77;6.10;;;13.00;99.90;;;;;;5039007;28;20462;-64
2022/12/23 01:47:27;;;;;;;6.03;5.43;;;13.00;99.90;;;;;;5025831;28;20441;-64
2022/12/23 01:50:00;;;;;;;7.47;6.60;;;13.00;99.90;;;;;;5036057;28;20436;-63
2022/12/23 01:52:27;;;;;;;6.60;5.87;;;13.00;99.90;;;;;;5030513;28;20460;-66
2022/12/23 01:54:54;;;;;;;6.40;5.80;;;13.00;99.90;;;;;;5031836;28;20957;-63
2022/12/23 01:57:20;;;;;;;9.83;6.60;;;12.90;99.90;;;;;;5027645;28;20516;-64
2022/12/23 02:05:17;;;;;;;6.43;5.93;;;12.80;99.90;;;;;;5026694;28;20441;-67
2022/12/23 02:10:35;;;;;;;6.67;6.17;;;12.80;99.90;;;;;;5026601;28;20536;-64
2022/12/23 02:13:17;;;;;;;6.27;5.77;;;12.80;99.90;;;;;;5032394;28;20437;-64
2022/12/23 02:18:51;;;;;;;6.30;5.90;;;12.80;99.90;;;;;;5033319;28;20515;-63
2022/12/23 02:21:53;;;;;;;6.70;6.20;;;12.70;99.90;;;;;;5028580;28;20450;-67
2022/12/23 02:24:40;;;;;;;7.60;6.90;;;12.70;99.90;;;;;;5041115;28;20479;-65
2022/12/23 02:27:38;;;;;;;6.63;6.23;;;12.70;99.90;;;;;;5021556;28;20433;-69
2022/12/23 02:30:39;;;;;;;6.87;6.37;;;12.80;99.90;;;;;;4995882;28;20448;-70
2022/12/23 02:33:29;;;;;;;7.30;6.70;;;12.70;99.90;;;;;;5022959;28;20436;-69
2022/12/23 02:36:17;;;;;;;7.10;6.60;;;12.70;99.90;;;;;;5031354;28;20573;-63
2022/12/23 02:39:01;;;;;;;7.87;7.27;;;12.80;99.90;;;;;;5031934;28;20438;-63
2022/12/23 02:41:42;;;;;;;6.97;6.37;;;12.70;99.90;;;;;;5025137;28;20457;-67
2022/12/23 02:44:22;;;;;;;7.53;6.93;;;12.70;99.90;;;;;;5026752;28;20464;-70
2022/12/23 02:47:00;;;;;;;7.23;6.53;;;12.70;99.90;;;;;;5032123;28;20474;-63
2022/12/23 02:49:47;;;;;;;7.07;6.50;;;12.70;99.90;;;;;;5037612;28;20498;-63
2022/12/23 02:52:16;;;;;;;6.73;6.20;;;12.60;99.90;;;;;;5032131;28;20427;-63
2022/12/23 02:54:50;;;;;;;6.87;6.37;;;12.60;99.90;;;;;;5045618;28;20471;-63
2022/12/23 02:57:22;;;;;;;6.40;6.00;;;12.70;99.90;;;;;;5041789;28;20437;-63
2022/12/23 02:59:50;;;;;;;6.57;6.17;;;12.70;99.90;;;;;;5031456;28;20445;-63
2022/12/23 03:02:16;;;;;;;7.10;6.33;;;12.70;99.90;;;;;;5029142;28;20832;-64
2022/12/23 03:04:42;;;;;;;6.63;6.23;;;12.70;99.90;;;;;;5032960;28;20422;-63
2022/12/23 03:07:29;;;;;;;7.37;6.70;;;12.70;99.90;;;;;;5029558;28;20434;-70
2022/12/23 03:10:17;;;;;;;7.00;6.30;;;12.70;99.90;;;;;;5029385;28;20668;-64
2022/12/23 03:12:57;;;;;;;7.27;6.77;;;12.80;99.90;;;;;;5023621;28;20795;-63
2022/12/23 03:15:28;;;;;;;7.10;6.60;;;12.70;99.90;;;;;;5028430;28;20460;-63
2022/12/23 03:18:10;;;;;;;7.43;6.90;;;12.80;99.90;;;;;;5028549;28;20518;-63
2022/12/23 03:20:41;;;;;;;7.47;6.97;;;12.70;99.90;;;;;;5023812;28;20443;-63
2022/12/23 03:23:25;;;;;;;7.80;7.10;;;12.70;99.90;;;;;;5027133;28;20496;-67
2022/12/23 03:26:09;;;;;;;7.70;7.00;;;12.70;99.90;;;;;;5030929;28;20430;-64
2022/12/23 03:28:47;;;;;;;7.50;6.90;;;12.80;99.90;;;;;;5039940;28;20464;-68
2022/12/23 03:31:18;;;;;;;8.43;7.70;;;12.80;99.90;;;;;;5030498;28;20524;-65
2022/12/23 03:33:48;;;;;;;8.90;8.10;;;12.80;99.90;;;;;;5039942;28;20946;-64
2022/12/23 03:36:33;;;;;;;8.70;7.67;;;12.80;99.90;;;;;;5031632;28;20452;-64
2022/12/23 03:39:02;;;;;;;9.50;8.50;;;12.90;99.90;;;;;;5038514;28;20432;-63
2022/12/23 03:41:33;;;;;;;9.50;7.90;;;12.90;99.90;;;;;;5032563;28;20429;-64
2022/12/23 03:44:10;;;;;;;8.87;8.10;;;12.90;99.90;;;;;;5028909;28;20466;-64
2022/12/23 03:47:09;;;;;;;7.93;7.30;;;12.90;99.90;;;;;;5027553;28;20430;-63
2022/12/23 03:49:47;;;;;;;8.87;7.97;;;12.90;99.90;;;;;;5025606;28;20929;-63
2022/12/23 03:52:20;;;;;;;7.70;6.90;;;12.90;99.90;;;;;;5029895;28;20527;-70
2022/12/23 03:54:58;;;;;;;7.63;7.03;;;12.90;99.90;;;;;;5031707;28;20796;-63
2022/12/23 03:57:31;;;;;;;6.70;6.20;;;12.90;99.90;;;;;;5030007;28;20459;-64
2022/12/23 03:59:56;;;;;;;6.83;6.33;;;12.80;99.90;;;;;;5032942;28;20430;-64
2022/12/23 04:02:31;;;;;;;7.80;6.93;;;12.70;99.90;;;;;;5029294;28;20470;-64
2022/12/23 04:05:23;;;;;;;6.80;6.30;;;12.80;99.90;;;;;;5034709;28;20199;-63
2022/12/23 04:08:02;;;;;;;6.63;6.13;;;12.80;99.90;;;;;;5034096;28;20517;-63
2022/12/23 04:10:28;;;;;;;7.80;7.20;;;12.70;99.90;;;;;;5028578;28;20528;-64
2022/12/23 04:12:54;;;;;;;7.50;6.90;;;12.70;99.90;;;;;;5031571;28;20761;-64
2022/12/23 04:15:22;;;;;;;7.80;7.20;;;12.60;99.90;;;;;;5032971;28;20432;-64
2022/12/23 04:17:49;;;;;;;7.50;7.00;;;12.60;99.90;;;;;;5031858;28;20179;-63
2022/12/23 04:20:15;;;;;;;7.93;7.27;;;12.70;99.90;;;;;;5031670;28;20798;-64
2022/12/23 04:22:42;;;;;;;8.73;7.73;;;12.70;99.90;;;;;;5031851;28;20481;-63
2022/12/23 04:25:12;;;;;;;8.20;7.60;;;12.70;99.90;;;;;;5033713;28;20482;-69
2022/12/23 04:27:38;;;;;;;8.07;7.47;;;12.70;99.90;;;;;;5030854;28;20454;-63
2022/12/23 04:30:05;;;;;;;8.33;7.73;;;12.70;99.90;;;;;;5031313;28;20454;-64
2022/12/23 04:32:31;;;;;;;9.77;8.80;;;12.70;99.90;;;;;;5032627;28;20497;-64
2022/12/23 04:34:57;;;;;;;9.00;8.23;;;12.80;99.90;;;;;;5033831;28;20433;-64
2022/12/23 04:37:22;;;;;;;8.77;7.97;;;12.80;99.90;;;;;;5030429;28;20184;-64
2022/12/23 04:39:48;;;;;;;9.23;8.43;;;12.80;99.90;;;;;;5033534;28;20172;-64
2022/12/23 04:42:14;;;;;;;8.93;8.07;;;12.80;99.90;;;;;;5031614;28;20209;-71
2022/12/23 04:44:39;;;;;;;9.40;8.50;;;12.80;99.90;;;;;;5029479;28;20183;-64
2022/12/23 04:47:05;;;;;;;8.90;7.90;;;12.80;99.90;;;;;;5031737;28;20525;-64
2022/12/23 04:49:31;;;;;;;8.73;7.63;;;12.80;99.90;;;;;;5031193;28;21112;-65
2022/12/23 04:51:57;;;;;;;9.00;8.23;;;12.90;99.90;;;;;;5030319;28;20186;-64
2022/12/23 04:54:22;;;;;;;8.07;7.47;;;12.80;99.90;;;;;;5025022;28;20551;-68
2022/12/23 04:56:48;;;;;;;8.13;7.33;;;12.70;99.90;;;;;;5030555;28;20195;-64
2022/12/23 04:59:14;;;;;;;8.47;7.57;;;12.80;99.90;;;;;;5029935;28;20183;-69
2022/12/23 05:01:41;;;;;;;8.00;7.30;;;12.80;99.90;;;;;;5024084;28;20191;-66
2022/12/23 05:04:08;;;;;;;7.43;6.93;;;12.80;99.90;;;;;;5042805;28;20308;-64
2022/12/23 05:06:34;;;;;;;8.20;7.50;;;12.80;99.90;;;;;;5037760;28;20429;-65
2022/12/23 05:09:00;;;;;;;8.03;7.37;;;12.80;99.90;;;;;;5034485;28;20439;-63
2022/12/23 05:11:26;;;;;;;8.33;7.63;;;12.80;99.90;;;;;;5028672;28;20830;-68
2022/12/23 05:13:51;;;;;;;7.40;6.80;;;12.80;99.90;;;;;;5029406;28;20661;-63
2022/12/23 05:16:18;;;;;;;7.40;6.90;;;12.80;99.90;;;;;;5026291;28;20463;-70
2022/12/23 05:18:43;;;;;;;7.57;6.97;;;12.80;99.90;;;;;;5028501;28;20657;-64
2022/12/23 05:21:09;;;;;;;6.90;6.40;;;12.80;99.90;;;;;;5027018;28;20514;-65
2022/12/23 05:23:35;;;;;;;7.30;6.70;;;12.90;99.90;;;;;;5028471;28;20244;-63
2022/12/23 05:26:01;;;;;;;7.07;6.57;;;12.90;99.90;;;;;;5031652;28;20175;-64
2022/12/23 05:28:26;;;;;;;6.60;6.20;;;12.90;99.90;;;;;;5024018;28;20191;-65
2022/12/23 05:31:03;;;;;;;6.50;5.93;;;12.90;99.90;;;;;;5028073;28;20201;-64
2022/12/23 05:33:29;;;;;;;7.27;6.67;;;12.90;99.90;;;;;;5027260;28;20196;-64
2022/12/23 05:35:55;;;;;;;6.33;5.83;;;12.90;99.90;;;;;;5023611;28;20437;-63
2022/12/23 05:38:21;;;;;;;6.37;5.80;;;12.90;99.90;;;;;;5029686;28;20789;-63
2022/12/23 05:40:48;;;;;;;7.07;6.67;;;12.80;99.90;;;;;;5026559;28;20843;-64
2022/12/23 05:43:14;;;;;;;6.20;5.70;;;12.80;99.90;;;;;;5028818;28;20357;-65
2022/12/23 05:45:40;;;;;;;7.93;6.33;;;12.80;99.90;;;;;;5030453;28;20468;-64
2022/12/23 05:48:05;;;;;;;6.03;5.60;;;12.90;99.90;;;;;;5029801;28;20894;-65
2022/12/23 05:50:31;;;;;;;6.40;5.90;;;12.80;99.90;;;;;;5026485;28;20181;-64
2022/12/23 05:52:57;;;;;;;6.00;5.40;;;12.80;99.90;;;;;;5032908;28;20682;-64
2022/12/23 05:55:24;;;;;;;7.47;6.77;;;12.80;99.90;;;;;;5017710;28;20433;-66
2022/12/23 05:57:50;;;;;;;7.30;6.70;;;12.80;99.90;;;;;;5031309;28;20209;-64
2022/12/23 06:00:16;;;;;;;6.97;6.47;;;12.80;99.90;;;;;;5023801;28;20940;-69
2022/12/23 06:02:42;;;;;;;6.57;6.07;;;12.80;99.90;;;;;;5022757;28;20510;-63
2022/12/23 06:05:09;;;;;;;6.83;6.33;;;12.80;99.90;;;;;;5030264;28;20437;-63
2022/12/23 06:07:35;;;;;;;6.93;6.23;;;12.80;99.90;;;;;;5026584;28;20425;-62
2022/12/23 06:10:01;;;;;;;6.37;5.87;;;12.80;99.90;;;;;;5018858;28;20421;-63
2022/12/23 06:12:27;;;;;;;6.97;6.47;;;12.80;99.90;;;;;;5031190;28;20491;-63
2022/12/23 06:14:53;;;;;;;7.90;7.07;;;12.80;99.90;;;;;;5030816;28;20422;-63
2022/12/23 06:17:18;;;;;;;7.20;6.60;;;12.70;99.90;;;;;;5028991;28;20193;-70
2022/12/23 06:19:46;;;;;;;7.70;6.00;;;12.70;99.90;;;;;;5023481;28;20190;-63
2022/12/23 06:22:12;;;;;;;6.97;6.17;;;12.60;99.90;;;;;;5026820;28;20180;-65
2022/12/23 06:24:38;;;;;;;6.43;5.87;;;12.70;99.90;;;;;;5024480;28;20441;-64
2022/12/23 06:27:04;;;;;;;6.10;5.70;;;12.70;99.90;;;;;;5022183;28;20440;-64
2022/12/23 06:29:29;;;;;;;8.73;6.33;;;12.60;99.90;;;;;;5025429;28;20186;-64
2022/12/23 06:31:55;;;;;;;6.60;6.00;;;12.50;99.90;;;;;;5035322;28;20430;-64
2022/12/23 06:34:21;;;;;;;6.10;5.60;;;12.50;99.90;;;;;;5024929;28;20181;-66
2022/12/23 06:36:47;;;;;;;6.70;6.10;;;12.60;99.90;;;;;;5008453;28;20184;-64
2022/12/23 06:39:13;;;;;;;6.60;6.10;;;12.50;99.90;;;;;;5027398;28;20228;-64
2022/12/23 06:41:38;;;;;;;7.63;6.83;;;12.60;99.90;;;;;;5028232;28;20329;-64
2022/12/23 06:44:04;;;;;;;8.27;7.13;;;12.60;99.90;;;;;;5029710;28;20465;-71
2022/12/23 06:46:30;;;;;;;7.23;6.60;;;12.60;99.90;;;;;;5023431;28;20634;-64
2022/12/23 06:48:56;;;;;;;7.97;7.27;;;12.50;99.90;;;;;;5028065;28;20494;-65
2022/12/23 06:51:21;;;;;;;7.40;6.70;;;12.60;99.90;;;;;;5025043;28;20187;-70
2022/12/23 06:53:47;;;;;;;8.40;7.60;;;12.60;99.90;;;;;;5026189;28;20266;-64
2022/12/23 06:56:13;;;;;;;8.63;7.83;;;12.50;99.90;;;;;;5027904;28;20178;-64
2022/12/23 06:58:38;;;;;;;9.37;8.47;;;12.50;99.90;;;;;;5023095;28;20187;-66
2022/12/23 07:01:04;;;;;;;10.77;8.70;;;12.50;99.90;;;;;;5025559;28;20194;-63
2022/12/23 07:03:30;;;;;;;8.23;7.43;;;12.50;99.90;;;;;;5024594;28;20219;-64
2022/12/23 07:05:55;;;;;;;9.70;7.57;;;12.60;99.90;;;;;;5023608;28;20209;-63
2022/12/23 07:08:21;;;;;;;8.90;8.00;;;12.50;99.90;;;;;;5035698;28;20174;-71
2022/12/23 07:10:47;;;;;;;10.87;8.60;;;12.60;99.90;;;;;;5030442;28;20187;-67
2022/12/23 07:13:13;;;;;;;9.37;8.47;;;12.60;99.90;;;;;;5030486;28;20523;-64
2022/12/23 07:15:39;;;;;;;10.30;9.23;;;12.60;99.90;;;;;;5028576;28;20427;-64
2022/12/23 07:18:05;;;;;;;11.00;9.80;;;12.70;99.90;;;;;;5026900;28;20236;-68
2022/12/23 07:20:31;;;;;;;11.20;9.20;;;12.60;99.90;;;;;;5027167;28;20182;-65
2022/12/23 07:22:57;;;;;;;11.23;8.77;;;12.60;99.90;;;;;;5027655;28;20536;-65
2022/12/23 07:25:23;;;;;;;10.33;9.23;;;12.60;99.90;;;;;;5027252;28;20917;-71
2022/12/23 07:27:55;;;;;;;11.30;9.37;;;12.60;99.90;;;;;;5026124;28;20434;-67
2022/12/23 07:30:22;;;;;;;11.80;9.90;;;12.70;99.90;;;;;;5026093;28;20433;-70
2022/12/23 07:32:49;;;;;;;12.57;9.93;;;12.70;99.90;;;;;;5026291;28;20433;-64
2022/12/23 07:35:15;;;;;;;9.40;8.33;;;12.70;99.90;;;;;;5027430;28;20440;-63
2022/12/23 07:37:41;;;;;;;11.40;10.40;;;12.70;99.90;;;;;;5025640;28;20449;-67
2022/12/23 07:40:08;;;;;;;10.57;9.57;;;12.70;99.90;;;;;;5024240;28;20747;-66
2022/12/23 07:42:34;;;;;;;10.47;9.37;;;12.90;99.90;;;;;;5028407;28;20974;-63
2022/12/23 07:44:59;;;;;;;10.67;9.70;;;12.90;99.90;;;;;;5030172;28;20509;-70
2022/12/23 07:47:25;;;;;;;9.80;8.80;;;12.90;99.90;;;;;;5027275;28;20436;-70
2022/12/23 07:49:51;;;;;;;11.63;10.13;;;12.90;99.90;;;;;;5024105;28;20634;-63
2022/12/23 07:52:17;;;;;;;10.70;9.10;;;12.90;99.90;;;;;;5022750;28;20192;-64
2022/12/23 07:54:42;;;;;;;10.20;9.20;;;12.90;99.90;;;;;;5023615;28;20748;-66
2022/12/23 07:57:08;;;;;;;11.47;10.47;;;12.80;99.90;;;;;;5025017;28;20181;-67
2022/12/23 07:59:34;;;;;;;12.37;10.90;;;13.10;99.90;;;;;;5030761;28;20546;-68
2022/12/23 08:02:00;;;;;;;13.33;10.77;;;13.50;99.90;;;;;;5036360;28;20209;-67
2022/12/23 08:04:25;;;;;;;13.73;12.53;;;13.80;99.90;;;;;;5030798;28;20219;-70
2022/12/23 08:06:51;;;;;;;13.17;11.77;;;14.10;99.90;;;;;;5028524;28;20188;-66
2022/12/23 08:09:17;;;;;;;12.30;11.27;;;14.30;99.90;;;;;;5029171;28;20486;-72
2022/12/23 08:11:44;;;;;;;12.63;11.60;;;14.50;99.90;;;;;;5028545;28;20777;-66
2022/12/23 08:14:10;;;;;;;12.60;11.60;;;14.80;99.90;;;;;;5027827;28;20269;-65
2022/12/23 08:16:35;;;;;;;12.03;10.83;;;15.00;99.90;;;;;;5028150;28;20505;-65
2022/12/23 08:19:01;;;;;;;12.27;11.17;;;15.10;99.90;;;;;;5026750;28;20183;-71
2022/12/23 08:21:27;;;;;;;11.43;10.30;;;15.10;99.90;;;;;;5026678;28;20256;-71
2022/12/23 08:23:52;;;;;;;12.30;9.97;;;15.20;99.90;;;;;;5027717;28;20241;-67
2022/12/23 08:26:20;;;;;;;11.83;10.73;;;15.40;99.90;;;;;;5020693;28;20515;-64
2022/12/23 08:28:47;;;;;;;10.53;9.60;;;15.50;99.90;;;;;;5035612;28;20194;-64
2022/12/23 08:31:15;;;;;;;17.10;9.37;;;15.40;99.90;;;;;;5032690;28;20926;-63
2022/12/23 08:33:43;;;;;;;10.53;9.43;;;15.10;99.90;;;;;;5038213;28;20822;-66
2022/12/23 08:36:13;;;;;;;9.97;8.93;;;14.90;99.90;;;;;;5029674;28;20528;-63
2022/12/23 08:38:38;;;;;;;12.70;9.83;;;14.70;99.90;;;;;;5038063;28;20507;-66
2022/12/23 08:41:09;;;;;;;9.70;8.70;;;14.50;99.90;;;;;;5033252;28;20513;-63
2022/12/23 08:43:35;;;;;;;11.00;10.00;;;14.30;99.90;;;;;;5026734;28;20215;-64
2022/12/23 08:46:01;;;;;;;10.33;9.13;;;14.10;99.90;;;;;;5030029;28;20428;-64
2022/12/23 08:48:27;;;;;;;11.70;9.63;;;14.00;99.90;;;;;;5028485;28;20185;-71
2022/12/23 08:50:52;;;;;;;12.63;9.47;;;13.90;99.90;;;;;;5003209;28;20548;-64
2022/12/23 08:53:18;;;;;;;10.90;9.43;;;13.80;99.90;;;;;;5037244;28;20189;-64
2022/12/23 08:55:45;;;;;;;10.40;9.30;;;13.70;99.90;;;;;;5041101;28;20330;-65
2022/12/23 08:58:13;;;;;;;11.93;9.47;;;13.60;99.90;;;;;;5029155;28;20769;-64
2022/12/23 09:00:40;;;;;;;12.87;10.13;;;13.60;99.90;;;;;;5026094;28;20486;-65
2022/12/23 09:03:07;;;;;;;10.57;9.60;;;13.50;99.90;;;;;;5022515;28;20466;-64
2022/12/23 09:05:37;;;;;;;10.60;9.57;;;13.50;99.90;;;;;;5024796;28;20514;-64
2022/12/23 09:08:03;;;;;;;10.07;9.07;;;13.50;99.90;;;;;;5013785;28;20405;-65
2022/12/23 09:10:29;;;;;;;14.00;10.57;;;13.40;99.90;;;;;;5023659;28;20414;-63
2022/12/23 09:12:55;;;;;;;12.30;10.20;;;13.30;99.90;;;;;;5028443;28;20451;-70
2022/12/23 09:15:20;;;;;;;10.23;8.33;;;13.30;99.90;;;;;;5020509;28;20259;-64
2022/12/23 09:17:46;;;;;;;12.47;9.93;;;13.20;99.90;;;;;;5023948;28;20173;-65
2022/12/23 09:20:12;;;;;;;10.37;9.30;;;13.20;99.90;;;;;;5029882;28;20180;-64
2022/12/23 09:22:37;;;;;;;10.87;9.77;;;13.20;99.90;;;;;;5028533;28;20239;-64
2022/12/23 09:25:04;;;;;;;15.30;10.83;;;13.20;99.90;;;;;;5024081;28;20180;-64
2022/12/23 09:27:29;;;;;;;11.53;10.13;;;13.20;99.90;;;;;;5024848;28;20179;-68
2022/12/23 09:29:55;;;;;;;10.93;9.83;;;13.20;99.90;;;;;;5020979;28;20435;-65
2022/12/23 09:32:21;;;;;;;10.20;9.30;;;13.20;99.90;;;;;;5023558;28;20184;-66
2022/12/23 09:34:46;;;;;;;11.00;9.90;;;13.20;99.90;;;;;;5013555;28;20289;-69
2022/12/23 09:37:15;;;;;;;10.83;9.67;;;13.20;99.90;;;;;;5025691;28;20588;-68
2022/12/23 09:39:41;;;;;;;10.67;9.67;;;13.20;99.90;;;;;;5024579;28;20195;-68
2022/12/23 09:42:22;;;;;;;12.67;11.37;;;13.10;99.90;;;;;;5027457;28;20489;-68
2022/12/23 09:45:15;;;;;;;11.90;10.80;;;13.10;99.90;;;;;;5018884;28;20472;-69
2022/12/23 09:47:43;;;;;;;10.73;9.73;;;13.20;99.90;;;;;;5022469;28;20443;-68
2022/12/23 09:50:20;;;;;;;12.13;10.93;;;13.10;99.90;;;;;;5023875;28;20533;-67
2022/12/23 09:53:01;;;;;;;12.77;11.40;;;13.10;99.90;;;;;;5025428;28;20461;-66
2022/12/23 09:55:47;;;;;;;12.03;10.93;;;13.10;99.90;;;;;;5025467;28;20422;-73
2022/12/23 09:58:27;;;;;;;12.60;11.30;;;13.10;99.90;;;;;;5027571;28;20475;-66
2022/12/23 10:01:14;;;;;;;11.90;10.80;;;13.10;99.90;;;;;;5024492;28;20504;-66
2022/12/23 10:04:17;;;;;;;14.90;10.97;;;13.10;99.90;;;;;;5022427;28;20478;-69
2022/12/23 10:06:47;;;;;;;12.47;11.27;;;13.10;99.90;;;;;;5023419;28;21269;-74
2022/12/23 10:09:14;;;;;;;13.00;11.80;;;13.10;99.90;;;;;;5024720;28;20497;-66
2022/12/23 10:11:44;;;;;;;13.20;11.93;;;13.10;99.90;;;;;;5019913;28;20949;-66
2022/12/23 10:14:22;;;;;;;13.40;11.87;;;13.10;99.90;;;;;;5023376;28;20430;-66
2022/12/23 10:17:13;;;;;;;12.47;11.27;;;13.10;99.90;;;;;;5025861;28;20565;-66
2022/12/23 10:19:42;;;;;;;12.43;10.87;;;13.10;99.90;;;;;;5025371;28;20436;-66
2022/12/23 10:22:37;;;;;;;12.07;10.30;;;13.10;99.90;;;;;;5020991;28;20427;-66
2022/12/23 10:25:33;;;;;;;11.87;10.70;;;13.00;99.90;;;;;;5019790;28;20427;-67
2022/12/23 10:27:59;;;;;;;15.30;13.00;;;13.00;99.90;;;;;;4995645;28;20464;-66
2022/12/23 10:30:26;;;;;;;11.53;10.33;;;13.10;99.90;;;;;;5022341;28;20425;-74
2022/12/23 10:32:51;;;;;;;11.50;10.40;;;13.10;99.90;;;;;;5019963;28;20219;-65
2022/12/23 10:35:41;;;;;;;10.70;9.70;;;13.10;99.90;;;;;;5032415;28;20528;-70
2022/12/23 10:38:21;;;;;;;11.37;10.27;;;13.00;99.90;;;;;;5028986;28;20716;-65
2022/12/23 10:41:10;;;;;;;9.83;8.93;;;13.00;99.90;;;;;;5029365;28;21080;-64
2022/12/23 10:43:44;;;;;;;10.83;9.83;;;13.00;99.90;;;;;;5028047;28;20898;-65
2022/12/23 10:46:19;;;;;;;9.73;8.73;;;13.00;99.90;;;;;;5022513;28;20474;-64
2022/12/23 10:49:16;;;;;;;9.93;9.03;;;13.00;99.90;;;;;;5025234;28;20436;-64
2022/12/23 10:51:48;;;;;;;9.70;8.80;;;13.00;99.90;;;;;;5021614;28;20530;-64
2022/12/23 10:54:22;;;;;;;8.87;8.07;;;13.00;99.90;;;;;;5023344;28;20419;-63
2022/12/23 10:56:48;;;;;;;8.90;8.10;;;13.10;99.90;;;;;;5025579;28;20528;-64
2022/12/23 10:59:16;;;;;;;9.03;8.30;;;13.10;99.90;;;;;;5024051;28;20582;-64
2022/12/23 11:01:46;;;;;;;9.53;8.60;;;13.10;99.90;;;;;;5022123;28;20435;-65
2022/12/23 11:04:16;;;;;;;9.67;8.37;;;13.20;99.90;;;;;;5027732;28;20588;-66
2022/12/23 11:06:45;;;;;;;8.90;8.00;;;13.20;99.90;;;;;;5029031;28;20527;-65
2022/12/23 11:09:19;;;;;;;8.50;7.80;;;13.20;99.90;;;;;;5025122;28;20527;-65
2022/12/23 11:11:55;;;;;;;9.50;8.60;;;13.30;99.90;;;;;;5025094;28;20599;-65
2022/12/23 11:14:28;;;;;;;7.97;7.30;;;13.30;99.90;;;;;;5026964;28;20434;-65
2022/12/23 11:16:54;;;;;;;7.80;7.03;;;13.30;99.90;;;;;;5028736;28;20435;-64
2022/12/23 11:19:19;;;;;;;8.67;7.97;;;13.30;99.90;;;;;;5031037;28;20423;-64
2022/12/23 11:21:57;;;;;;;8.10;7.40;;;13.30;99.90;;;;;;5029540;28;20181;-65
2022/12/23 11:24:24;;;;;;;9.67;7.80;;;13.10;99.90;;;;;;5024658;28;20215;-64
2022/12/23 11:27:03;;;;;;;8.30;7.60;;;13.00;99.90;;;;;;5022474;28;20448;-64
2022/12/23 11:29:34;;;;;;;9.03;8.13;;;13.00;99.90;;;;;;5020799;28;20924;-65
2022/12/23 11:32:01;;;;;;;8.90;8.10;;;13.00;99.90;;;;;;5029494;28;20433;-64
2022/12/23 11:34:31;;;;;;;8.60;7.80;;;13.00;99.90;;;;;;5031018;28;20981;-69
2022/12/23 11:36:59;;;;;;;9.37;8.50;;;12.80;99.90;;;;;;5027199;28;21010;-64
2022/12/23 11:39:31;;;;;;;8.77;7.97;;;12.80;99.90;;;;;;5019049;28;20440;-71
2022/12/23 11:42:10;;;;;;;9.27;8.43;;;12.80;99.90;;;;;;5039697;28;20493;-73
2022/12/23 11:44:47;;;;;;;8.90;8.00;;;12.80;99.90;;;;;;5023155;28;20549;-63
2022/12/23 11:47:23;;;;;;;9.27;8.33;;;12.90;99.90;;;;;;5028222;28;20440;-63
2022/12/23 11:49:53;;;;;;;9.83;8.70;;;12.90;99.90;;;;;;4995317;28;20440;-69
2022/12/23 11:52:21;;;;;;;8.77;8.07;;;12.90;99.90;;;;;;5022647;28;20426;-64
2022/12/23 11:54:56;;;;;;;11.17;8.53;;;12.80;99.90;;;;;;5018204;28;20487;-68
2022/12/23 11:57:36;;;;;;;9.33;8.43;;;12.90;99.90;;;;;;5024511;28;20429;-65
2022/12/23 12:00:05;;;;;;;9.50;8.60;;;12.90;99.90;;;;;;5019277;28;20436;-65
2022/12/23 12:02:41;;;;;;;8.60;7.90;;;12.90;99.90;;;;;;5044630;28;20433;-63
2022/12/23 12:05:37;;;;;;;9.20;8.10;;;12.90;99.90;;;;;;5022866;28;20424;-65
2022/12/23 12:08:10;;;;;;;9.60;8.70;;;12.80;99.90;;;;;;5025440;28;20597;-64
2022/12/23 12:10:38;;;;;;;9.10;8.30;;;12.80;99.90;;;;;;5024462;28;20425;-64
2022/12/23 12:13:27;;;;;;;9.93;8.00;;;12.90;99.90;;;;;;5031719;28;20432;-64
2022/12/23 12:16:12;;;;;;;8.80;8.10;;;12.90;99.90;;;;;;5030109;28;20431;-64
2022/12/23 12:18:40;;;;;;;7.17;6.50;;;12.90;99.90;;;;;;5032133;28;20945;-62
2022/12/23 12:21:11;;;;;;;6.80;6.40;;;12.90;99.90;;;;;;5033762;28;20925;-63
2022/12/23 12:23:45;;;;;;;6.97;6.47;;;12.90;99.90;;;;;;5012217;28;20485;-64
2022/12/23 12:26:29;;;;;;;7.00;6.50;;;12.90;99.90;;;;;;5031260;28;20439;-63
2022/12/23 12:29:07;;;;;;;7.63;7.07;;;12.90;99.90;;;;;;5031426;28;20441;-64
2022/12/23 12:31:37;;;;;;;7.73;7.13;;;13.00;99.90;;;;;;5021781;28;20431;-64
2022/12/23 12:34:41;;;;;;;7.80;7.10;;;13.00;99.90;;;;;;5032198;28;20495;-63
2022/12/23 12:37:19;;;;;;;7.17;6.67;;;12.90;99.90;;;;;;5030014;28;20418;-64
2022/12/23 12:39:53;;;;;;;8.30;7.43;;;12.70;99.90;;;;;;5024506;28;20484;-66
2022/12/23 12:42:39;;;;;;;6.43;6.03;;;12.70;99.90;;;;;;5032867;28;20429;-65
2022/12/23 12:45:40;;;;;;;8.17;7.57;;;12.80;99.90;;;;;;5016263;28;20445;-65
2022/12/23 12:48:28;;;;;;;7.37;6.77;;;12.80;99.90;;;;;;5014775;28;20441;-65
2022/12/23 12:51:03;;;;;;;7.47;6.87;;;12.90;99.90;;;;;;5031560;28;20441;-64
2022/12/23 12:53:31;;;;;;;8.50;7.70;;;13.00;99.90;;;;;;5030576;28;20491;-70
2022/12/23 12:56:09;;;;;;;7.80;7.10;;;13.00;99.90;;;;;;5028208;28;20831;-65
2022/12/23 12:58:35;;;;;;;6.13;5.83;;;13.00;99.90;;;;;;5026137;28;20436;-64
2022/12/23 13:01:44;;;;;;;7.57;6.97;;;13.00;99.90;;;;;;5032753;28;20429;-64
2022/12/23 13:04:44;;;;;;;6.03;5.53;;;13.00;99.90;;;;;;5003901;28;20640;-65
2022/12/23 13:07:24;;;;;;;7.10;6.50;;;12.90;99.90;;;;;;5027359;28;20409;-64
2022/12/23 13:10:25;;;;;;;6.60;6.00;;;12.80;99.90;;;;;;5028768;28;20438;-65
2022/12/23 13:12:51;;;;;;;8.50;7.90;;;12.90;99.90;;;;;;5036704;28;20614;-69
2022/12/23 13:15:32;;;;;;;9.10;8.47;;;12.90;99.90;;;;;;5031375;28;20520;-70
2022/12/23 13:18:29;;;;;;;8.23;7.73;;;12.90;99.90;;;;;;5030964;28;20187;-66
2022/12/23 13:21:20;;;;;;;9.63;8.93;;;13.00;99.90;;;;;;5033661;28;20427;-63
2022/12/23 13:24:33;;;;;;;8.37;7.77;;;13.00;99.90;;;;;;5028315;28;20487;-65
2022/12/23 13:27:10;;;;;;;8.27;7.67;;;13.10;99.90;;;;;;5020898;28;20805;-64
2022/12/23 13:30:00;;;;;;;8.40;7.80;;;13.00;99.90;;;;;;5031688;28;20453;-64
2022/12/23 13:32:50;;;;;;;6.80;6.40;;;13.00;99.90;;;;;;5030201;28;20828;-66
2022/12/23 13:35:25;;;;;;;7.80;7.20;;;12.90;99.90;;;;;;5032653;28;20434;-67
2022/12/23 13:38:28;;;;;;;7.53;7.03;;;12.90;99.90;;;;;;5030438;28;20491;-64